Time;durP1;ratioP1;P1;durP2;ratioP2;P2;SDS_P1;SDS_P2;PMS_P1;PMS_P2;Temp;Humidity;BMP_temperature;BMP_pressure;BME280_temperature;BME280_humidity;BME280_pressure;Samples;Min_cycle;Max_cycle;Signal;HPM_P1;HPM_P2
2023/01/03 00:02:02;125398.00;0.42;217.39;0.00;0.00;0.62;;;;;13.60;1.00;;;;;;2260176;61;1285;-86
2023/01/03 00:04:29;62029.00;0.21;107.98;0.00;0.00;0.62;;;;;13.60;1.00;;;;;;2260092;61;1695;-86
2023/01/03 00:06:58;80949.00;0.27;140.68;0.00;0.00;0.62;;;;;13.40;1.00;;;;;;2260214;61;1116;-86
2023/01/03 00:09:25;81495.00;0.27;141.62;0.00;0.00;0.62;;;;;13.40;1.00;;;;;;2260185;61;1335;-86
2023/01/03 00:14:44;32019.00;0.11;56.08;0.00;0.00;0.62;;;;;13.60;1.00;;;;;;2260273;61;631;-86
2023/01/03 00:17:12;44386.00;0.15;77.48;0.00;0.00;0.62;;;;;13.60;1.00;;;;;;2260259;61;929;-86
2023/01/03 00:19:43;74138.00;0.25;128.91;0.00;0.00;0.62;;;;;13.50;1.00;;;;;;2259938;61;1931;-86
2023/01/03 00:22:11;86924.00;0.29;151.00;0.00;0.00;0.62;;;;;13.50;1.00;;;;;;2260155;61;1582;-87
2023/01/03 00:24:39;62734.00;0.21;109.20;0.00;0.00;0.62;;;;;13.50;1.00;;;;;;2260272;61;1098;-87
2023/01/03 00:27:06;43703.00;0.15;76.29;0.00;0.00;0.62;;;;;13.60;1.00;;;;;;2260251;61;1114;-89
2023/01/03 00:29:33;70518.00;0.24;122.66;0.00;0.00;0.62;;;;;13.30;1.00;;;;;;2260219;61;987;-87
2023/01/03 00:32:02;155529.00;0.52;269.34;0.00;0.00;0.62;;;;;13.20;1.00;;;;;;2260133;61;1389;-85
2023/01/03 00:34:32;36090.00;0.12;63.12;0.00;0.00;0.62;;;;;13.40;1.00;;;;;;2260217;61;1081;-88
2023/01/03 00:37:02;89202.00;0.30;154.93;0.00;0.00;0.62;;;;;13.50;1.00;;;;;;2260218;61;2042;-87
2023/01/03 00:39:29;8921.00;0.03;16.08;0.00;0.00;0.62;;;;;13.50;1.00;;;;;;2260132;61;1981;-86
2023/01/03 00:41:56;17804.00;0.06;31.47;0.00;0.00;0.62;;;;;13.50;1.00;;;;;;2260156;61;1419;-87
2023/01/03 00:44:23;4677.00;0.02;8.73;0.00;0.00;0.62;;;;;13.40;1.00;;;;;;2260189;61;1063;-86
2023/01/03 00:46:50;44275.00;0.15;77.28;0.00;0.00;0.62;;;;;13.50;1.00;;;;;;2260146;61;1130;-89
2023/01/03 00:49:18;57077.00;0.19;99.42;0.00;0.00;0.62;;;;;13.40;1.00;;;;;;2260188;61;1095;-85
2023/01/03 00:51:45;30082.00;0.10;52.73;0.00;0.00;0.62;;;;;13.30;1.00;;;;;;2260100;61;1353;-86
2023/01/03 00:54:13;15415.00;0.05;27.33;0.00;0.00;0.62;;;;;13.30;1.00;;;;;;2260118;61;2122;-86
2023/01/03 00:56:43;62503.00;0.21;108.80;0.00;0.00;0.62;;;;;13.50;1.00;;;;;;2260129;61;903;-86
2023/01/03 01:01:55;87649.00;0.29;152.25;0.00;0.00;0.62;;;;;13.40;1.00;;;;;;2260136;61;1660;-86
2023/01/03 01:04:26;341715.00;1.14;589.62;47793.00;0.16;83.37;;;;;13.30;1.00;;;;;;2260036;61;1132;-87
2023/01/03 01:06:55;534013.00;1.78;920.41;52920.00;0.18;92.24;;;;;13.40;1.00;;;;;;2260130;61;1073;-88
2023/01/03 01:09:25;827053.00;2.76;1428.35;86884.00;0.29;150.93;;;;;13.30;1.00;;;;;;2260079;61;1160;-87
2023/01/03 01:11:52;906285.00;3.02;1567.16;78167.00;0.26;135.87;;;;;13.40;1.00;;;;;;2260101;61;1277;-88
2023/01/03 01:14:21;1363710.00;4.55;2389.19;150277.00;0.50;260.28;;;;;13.40;1.00;;;;;;2260083;61;1113;-90
2023/01/03 01:16:50;1213540.00;4.05;2114.72;129849.00;0.43;225.07;;;;;13.20;1.00;;;;;;2260007;61;1015;-87
2023/01/03 01:19:17;1015304.00;3.38;1759.60;114589.00;0.38;198.75;;;;;13.20;1.00;;;;;;2260103;61;1989;-87
2023/01/03 01:21:48;931970.00;3.11;1612.34;91639.00;0.31;159.14;;;;;13.20;1.00;;;;;;2260065;61;1399;-87
2023/01/03 01:24:15;1018142.00;3.39;1764.63;68744.00;0.23;119.59;;;;;13.20;1.00;;;;;;2260046;61;917;-89
2023/01/03 01:26:42;1011153.00;3.37;1752.24;146109.00;0.49;253.10;;;;;13.30;1.00;;;;;;2259968;61;2127;-87
2023/01/03 01:29:11;966216.00;3.22;1672.73;82583.00;0.28;143.50;;;;;13.20;1.00;;;;;;2259951;61;1030;-88
2023/01/03 01:31:39;1002371.00;3.34;1736.67;112340.00;0.37;194.87;;;;;13.10;1.00;;;;;;2260500;61;1329;-88
2023/01/03 01:34:06;934477.00;3.11;1616.76;138307.00;0.46;239.65;;;;;13.10;1.00;;;;;;2260500;61;1126;-88
2023/01/03 01:36:36;958657.00;3.20;1659.38;138642.00;0.46;240.23;;;;;13.10;1.00;;;;;;2260683;61;1123;-88
2023/01/03 01:39:07;1035306.00;3.45;1795.10;153063.00;0.51;265.09;;;;;13.00;1.00;;;;;;2260571;61;1916;-88
2023/01/03 01:44:53;218116.00;0.73;377.10;19422.00;0.06;34.27;;;;;12.80;1.00;;;;;;2260637;61;746;-88
2023/01/03 01:47:30;61484.00;0.20;107.04;0.00;0.00;0.62;;;;;12.90;1.00;;;;;;2260645;61;1135;-87
2023/01/03 01:50:03;1147346.00;3.82;1995.31;245573.00;0.82;424.34;;;;;12.70;1.00;;;;;;2260669;61;1152;-87
2023/01/03 01:52:35;1125943.00;3.75;1956.88;164289.00;0.55;284.43;;;;;12.80;1.00;;;;;;2260612;61;1447;-87
2023/01/03 01:55:11;1575576.00;5.25;2786.15;130377.00;0.43;225.98;;;;;12.70;1.00;;;;;;2260619;61;1594;-86
2023/01/03 01:57:41;1317082.00;4.39;2303.40;146121.00;0.49;253.12;;;;;12.80;1.00;;;;;;2260508;61;1123;-86
2023/01/03 02:00:10;1429184.00;4.76;2510.56;168784.00;0.56;292.17;;;;;12.80;1.00;;;;;;2260519;61;1936;-86
2023/01/03 02:02:37;1189710.00;3.97;2071.63;126480.00;0.42;219.26;;;;;12.90;1.00;;;;;;2260508;61;1568;-87
2023/01/03 02:05:08;1078511.00;3.60;1872.04;105225.00;0.35;182.59;;;;;12.90;1.00;;;;;;2260568;61;1142;-86
2023/01/03 02:07:37;1065041.00;3.55;1848.02;131775.00;0.44;228.39;;;;;12.90;1.00;;;;;;2260679;61;1022;-86
2023/01/03 02:10:09;1121225.00;3.74;1948.42;136079.00;0.45;235.81;;;;;12.90;1.00;;;;;;2260611;61;1004;-87
2023/01/03 02:15:57;1027859.00;3.43;1781.88;112659.00;0.38;195.42;;;;;13.00;1.00;;;;;;2260665;61;646;-87
2023/01/03 02:18:38;476511.00;1.59;821.39;73274.00;0.24;127.42;;;;;12.90;1.00;;;;;;2260540;61;1927;-87
2023/01/03 02:21:45;241850.00;0.81;417.93;0.00;0.00;0.62;;;;;12.90;1.00;;;;;;2260593;61;1382;-86
2023/01/03 02:25:01;486501.00;1.62;838.59;9278.00;0.03;16.70;;;;;12.90;1.00;;;;;;2257650;61;1116;-86
2023/01/03 02:27:56;49228.00;0.16;85.85;0.00;0.00;0.62;;;;;12.70;1.00;;;;;;2260520;61;1966;-85
2023/01/03 02:30:41;100425.00;0.33;174.31;0.00;0.00;0.62;;;;;12.70;1.00;;;;;;2260632;61;1062;-86
2023/01/03 02:33:29;139864.00;0.47;242.34;0.00;0.00;0.62;;;;;12.80;1.00;;;;;;2260465;61;1501;-87
2023/01/03 02:36:05;24996.00;0.08;43.92;0.00;0.00;0.62;;;;;12.90;1.00;;;;;;2260592;61;1131;-86
2023/01/03 02:38:45;438741.00;1.46;756.42;14211.00;0.05;25.24;;;;;12.90;1.00;;;;;;2260550;61;2017;-87
2023/01/03 02:41:23;496993.00;1.66;856.65;64936.00;0.22;113.01;;;;;12.90;1.00;;;;;;2260524;61;1427;-86
2023/01/03 02:43:56;408881.00;1.36;705.07;59858.00;0.20;104.23;;;;;13.00;1.00;;;;;;2260514;61;1147;-85
2023/01/03 02:46:32;92717.00;0.31;161.00;0.00;0.00;0.62;;;;;13.00;1.00;;;;;;2260415;61;1649;-87
2023/01/03 02:49:06;14385.00;0.05;25.55;0.00;0.00;0.62;;;;;12.70;1.00;;;;;;2260506;61;1100;-87
2023/01/03 02:51:37;52250.00;0.17;91.08;0.00;0.00;0.62;;;;;12.70;1.00;;;;;;2260461;61;1351;-87
2023/01/03 02:54:10;0.00;0.00;0.62;0.00;0.00;0.62;;;;;12.60;1.00;;;;;;2260480;61;1037;-88
2023/01/03 02:56:42;63348.00;0.21;110.26;0.00;0.00;0.62;;;;;12.60;1.00;;;;;;2260445;61;1089;-86
2023/01/03 02:59:14;22472.00;0.07;39.55;0.00;0.00;0.62;;;;;12.70;1.00;;;;;;2260357;61;2202;-86
2023/01/03 03:01:49;46667.00;0.16;81.42;0.00;0.00;0.62;;;;;12.90;1.00;;;;;;2260333;61;1464;-86
2023/01/03 03:04:17;82521.00;0.28;143.39;0.00;0.00;0.62;;;;;12.80;1.00;;;;;;2260385;61;1051;-86
2023/01/03 03:06:54;0.00;0.00;0.62;0.00;0.00;0.62;;;;;12.70;1.00;;;;;;2260399;61;1578;-86
2023/01/03 03:09:21;20046.00;0.07;35.35;0.00;0.00;0.62;;;;;12.70;1.00;;;;;;2260475;61;970;-86
2023/01/03 03:14:22;443894.00;1.48;765.28;22468.00;0.07;39.54;;;;;12.70;1.00;;;;;;2266584;61;1321;-86
2023/01/03 03:16:53;857322.00;2.86;1481.28;132250.00;0.44;229.21;;;;;12.70;1.00;;;;;;2264412;61;1034;-85
2023/01/03 03:25:05;438012.00;1.46;755.16;52920.00;0.18;92.24;;;;;12.60;1.00;;;;;;2264443;61;615;-87
2023/01/03 03:30:22;672471.00;2.24;1159.53;65917.00;0.22;114.70;;;;;12.80;1.00;;;;;;2264420;61;684;-87
2023/01/03 03:32:55;964414.00;3.21;1669.54;127211.00;0.42;220.52;;;;;12.60;1.00;;;;;;2264286;61;1432;-86
2023/01/03 03:35:29;1031276.00;3.44;1787.94;131296.00;0.44;227.56;;;;;12.50;1.00;;;;;;2264331;61;1019;-88
2023/01/03 03:38:01;1276009.00;4.25;2228.27;168167.00;0.56;291.11;;;;;12.40;1.00;;;;;;2264375;61;1126;-86
2023/01/03 03:46:21;373699.00;1.25;644.59;51343.00;0.17;89.51;;;;;12.40;1.00;;;;;;2264400;61;704;-88
2023/01/03 03:51:47;230400.00;0.77;398.24;0.00;0.00;0.62;;;;;12.50;1.00;;;;;;2264313;61;1410;-87
2023/01/03 03:54:21;1315086.00;4.38;2299.74;165978.00;0.55;287.34;;;;;12.40;1.00;;;;;;2264267;61;1017;-87
2023/01/03 03:56:57;1332198.00;4.44;2331.15;161715.00;0.54;279.99;;;;;12.40;1.00;;;;;;2264273;61;1548;-88
2023/01/03 03:59:27;1321803.00;4.41;2312.06;63812.00;0.21;111.07;;;;;12.50;1.00;;;;;;2264199;61;1931;-88
2023/01/03 04:01:58;1314874.00;4.38;2299.35;113947.00;0.38;197.64;;;;;12.60;1.00;;;;;;2264188;61;1419;-87
2023/01/03 04:04:36;959871.00;3.20;1661.53;114598.00;0.38;198.76;;;;;12.50;1.00;;;;;;2264242;61;1164;-88
2023/01/03 04:07:04;351844.00;1.17;607.03;0.00;0.00;0.62;;;;;12.40;1.00;;;;;;2264259;61;1527;-88
2023/01/03 04:09:31;1221300.00;4.07;2128.78;98615.00;0.33;171.18;;;;;12.40;1.00;;;;;;2264283;61;836;-87
2023/01/03 04:11:58;769120.00;2.56;1327.32;60078.00;0.20;104.61;;;;;12.50;1.00;;;;;;2264077;61;1458;-88
2023/01/03 04:14:25;1418252.00;4.73;2490.22;146036.00;0.49;252.98;;;;;12.50;1.00;;;;;;2263976;61;1543;-87
2023/01/03 04:16:52;886283.00;2.95;1532.04;83793.00;0.28;145.59;;;;;12.30;1.00;;;;;;2264238;61;1107;-87
2023/01/03 04:19:19;735218.00;2.45;1268.37;43300.00;0.14;75.60;;;;;12.40;1.00;;;;;;2264218;61;2094;-88
2023/01/03 04:21:48;786418.00;2.62;1357.45;68951.00;0.23;119.95;;;;;12.50;1.00;;;;;;2264220;61;1387;-86
2023/01/03 04:24:18;656070.00;2.19;1131.14;53437.00;0.18;93.13;;;;;12.50;1.00;;;;;;2264171;61;1581;-87
2023/01/03 04:26:45;910699.00;3.04;1574.92;24244.00;0.08;42.62;;;;;12.40;1.00;;;;;;2264143;61;1556;-87
2023/01/03 04:29:21;710285.00;2.37;1225.08;26322.00;0.09;46.22;;;;;12.40;1.00;;;;;;2264152;61;1028;-86
2023/01/03 04:31:54;71384.00;0.24;124.15;0.00;0.00;0.62;;;;;12.40;1.00;;;;;;2264175;61;1448;-86
2023/01/03 04:34:22;9564.00;0.03;17.19;0.00;0.00;0.62;;;;;12.30;1.00;;;;;;2264229;61;1137;-86
2023/01/03 04:36:51;0.00;0.00;0.62;0.00;0.00;0.62;;;;;12.20;1.00;;;;;;2264150;61;1464;-86
2023/01/03 04:39:18;45152.00;0.15;78.80;0.00;0.00;0.62;;;;;12.10;1.00;;;;;;2264102;61;2009;-86
2023/01/03 04:41:46;78079.00;0.26;135.72;0.00;0.00;0.62;;;;;12.20;1.00;;;;;;2264112;61;1533;-86
2023/01/03 04:44:12;48542.00;0.16;84.66;0.00;0.00;0.62;;;;;12.00;1.00;;;;;;2264079;61;1605;-86
2023/01/03 04:46:40;173869.00;0.58;300.93;0.00;0.00;0.62;;;;;12.00;1.00;;;;;;2264135;61;988;-87
2023/01/03 04:49:13;11576.00;0.04;20.68;0.00;0.00;0.62;;;;;12.10;1.00;;;;;;2264123;61;1508;-86
2023/01/03 04:51:40;155395.00;0.52;269.10;0.00;0.00;0.62;;;;;12.10;1.00;;;;;;2264056;61;1478;-87
2023/01/03 04:54:09;142679.00;0.48;247.19;0.00;0.00;0.62;;;;;12.20;1.00;;;;;;2264108;61;1673;-86
2023/01/03 04:56:40;155587.00;0.52;269.44;0.00;0.00;0.62;;;;;12.20;1.00;;;;;;2264078;61;1403;-86
2023/01/03 04:59:07;62393.00;0.21;108.61;0.00;0.00;0.62;;;;;12.10;1.00;;;;;;2264068;61;1923;-85
2023/01/03 05:01:34;28371.00;0.09;49.76;0.00;0.00;0.62;;;;;12.10;1.00;;;;;;2264043;61;1533;-85
2023/01/03 05:04:02;32600.00;0.11;57.08;0.00;0.00;0.62;;;;;12.00;1.00;;;;;;2264094;61;989;-85
2023/01/03 05:06:29;91208.00;0.30;158.39;0.00;0.00;0.62;;;;;12.00;1.00;;;;;;2264622;61;1414;-85
2023/01/03 05:08:57;8203.00;0.03;14.84;0.00;0.00;0.62;;;;;12.10;1.00;;;;;;2264752;61;1536;-86
2023/01/03 05:11:28;123008.00;0.41;213.27;0.00;0.00;0.62;;;;;12.10;1.00;;;;;;2264707;61;1515;-85
2023/01/03 05:13:55;82072.00;0.27;142.62;0.00;0.00;0.62;;;;;12.10;1.00;;;;;;2264734;61;1392;-86
2023/01/03 05:16:24;87761.00;0.29;152.44;0.00;0.00;0.62;;;;;11.90;1.00;;;;;;2264757;61;1338;-86
2023/01/03 05:18:52;58235.00;0.19;101.43;0.00;0.00;0.62;;;;;11.70;1.00;;;;;;2264813;61;1082;-88
2023/01/03 05:26:56;57569.00;0.19;100.27;0.00;0.00;0.62;;;;;11.90;1.00;;;;;;2264798;61;715;-86
2023/01/03 05:29:24;121249.00;0.40;210.24;0.00;0.00;0.62;;;;;11.90;1.00;;;;;;2264681;61;1363;-86
2023/01/03 05:31:52;158042.00;0.53;273.67;0.00;0.00;0.62;;;;;12.00;1.00;;;;;;2264551;61;1448;-86
2023/01/03 05:34:19;120193.00;0.40;208.42;0.00;0.00;0.62;;;;;12.00;1.00;;;;;;2264619;61;1518;-85
2023/01/03 05:36:46;35095.00;0.12;61.40;0.00;0.00;0.62;;;;;12.00;1.00;;;;;;2264673;61;1520;-86
2023/01/03 05:39:13;243308.00;0.81;420.44;0.00;0.00;0.62;;;;;12.00;1.00;;;;;;2264524;61;1499;-87
2023/01/03 05:44:27;146398.00;0.49;253.60;4752.00;0.02;8.86;;;;;11.80;1.00;;;;;;2264765;61;657;-86
2023/01/03 05:46:53;92277.00;0.31;160.24;0.00;0.00;0.62;;;;;11.80;1.00;;;;;;2264640;61;956;-85
2023/01/03 05:49:20;216519.00;0.72;374.35;0.00;0.00;0.62;;;;;11.60;1.00;;;;;;2264609;61;2303;-87
2023/01/03 05:51:47;1471116.00;4.90;2588.89;82489.00;0.27;143.34;;;;;11.70;1.00;;;;;;2264689;61;1312;-87
2023/01/03 05:54:16;1102811.00;3.68;1915.45;149450.00;0.50;258.86;;;;;11.60;1.00;;;;;;2264573;61;1441;-86
2023/01/03 05:56:43;1118529.00;3.73;1943.59;119825.00;0.40;207.78;;;;;11.60;1.00;;;;;;2264542;61;1463;-87
2023/01/03 05:59:13;892173.00;2.97;1542.38;107442.00;0.36;186.42;;;;;11.50;1.00;;;;;;2264663;61;1066;-86
2023/01/03 06:01:45;680985.00;2.27;1174.28;100019.00;0.33;173.60;;;;;11.50;1.00;;;;;;2264549;61;2005;-86
2023/01/03 06:04:12;994324.00;3.31;1722.42;6447.00;0.02;11.79;;;;;11.50;1.00;;;;;;2264594;61;1508;-87
2023/01/03 06:06:42;1086808.00;3.62;1886.85;44771.00;0.15;78.14;;;;;11.70;1.00;;;;;;2264631;61;1505;-87
2023/01/03 06:09:09;864679.00;2.88;1494.17;74232.00;0.25;129.07;;;;;11.80;1.00;;;;;;2264603;61;1108;-86
2023/01/03 06:11:36;1388539.00;4.63;2435.08;52904.00;0.18;92.21;;;;;11.60;1.00;;;;;;2264525;61;1533;-87
2023/01/03 06:14:05;1244324.00;4.15;2170.57;99725.00;0.33;173.10;;;;;11.30;1.00;;;;;;2264433;61;1589;-85
2023/01/03 06:19:20;438062.00;1.46;755.25;10545.00;0.04;18.89;;;;;11.30;1.00;;;;;;2264648;61;622;-87
2023/01/03 06:21:48;1407753.00;4.69;2470.71;24395.00;0.08;42.88;;;;;11.40;1.00;;;;;;2264407;61;2014;-86
2023/01/03 06:24:16;1189024.00;3.96;2070.39;22857.00;0.08;40.22;;;;;11.40;1.00;;;;;;2264578;61;1486;-86
2023/01/03 06:26:43;887133.00;2.96;1533.53;33208.00;0.11;58.14;;;;;11.40;1.00;;;;;;2264440;61;1474;-84
2023/01/03 06:29:10;875183.00;2.92;1512.57;35955.00;0.12;62.89;;;;;11.40;1.00;;;;;;2264494;61;1370;-85
2023/01/03 06:31:38;1201823.00;4.01;2093.52;119458.00;0.40;207.15;;;;;11.30;1.00;;;;;;2264530;61;1286;-87
2023/01/03 06:34:07;981089.00;3.27;1699.01;38715.00;0.13;67.67;;;;;11.40;1.00;;;;;;2264464;61;1460;-86
2023/01/03 06:36:39;946376.00;3.15;1637.72;34908.00;0.12;61.08;;;;;11.50;1.00;;;;;;2264471;61;1338;-87
2023/01/03 06:39:07;1222846.00;4.08;2131.58;59625.00;0.20;103.83;;;;;11.50;1.00;;;;;;2264454;61;1573;-85
2023/01/03 06:41:35;853007.00;2.84;1473.73;70074.00;0.23;121.89;;;;;11.00;1.00;;;;;;2264357;61;1934;-87
2023/01/03 06:44:05;972527.00;3.24;1683.87;37819.00;0.13;66.11;;;;;10.90;1.00;;;;;;2264464;61;1627;-86
2023/01/03 06:54:50;202064.00;0.67;349.48;0.00;0.00;0.62;;;;;10.80;1.00;;;;;;2264489;61;627;-85
2023/01/03 06:57:17;910015.00;3.03;1573.72;90063.00;0.30;156.42;;;;;11.00;1.00;;;;;;2264395;61;1553;-87
2023/01/03 06:59:44;630110.00;2.10;1086.24;21722.00;0.07;38.25;;;;;10.90;1.00;;;;;;2264496;61;1994;-86
2023/01/03 07:02:13;829200.00;2.76;1432.10;90654.00;0.30;157.44;;;;;10.90;1.00;;;;;;2264291;61;1547;-86
2023/01/03 07:04:40;704954.00;2.35;1215.83;33207.00;0.11;58.13;;;;;11.00;1.00;;;;;;2264397;61;1484;-86
2023/01/03 07:07:09;651922.00;2.17;1123.96;45810.00;0.15;79.94;;;;;11.00;1.00;;;;;;2264435;61;1153;-86
2023/01/03 07:09:36;865247.00;2.88;1495.16;59058.00;0.20;102.85;;;;;11.00;1.00;;;;;;2264386;61;1466;-87
2023/01/03 07:13:57;651511.00;2.17;1123.25;20418.00;0.07;35.99;;;;;11.00;1.00;;;;;;2264163;61;1541;-86
2023/01/03 07:17:20;980604.00;3.27;1698.15;65577.00;0.22;114.12;;;;;11.70;1.00;;;;;;2262112;61;1204;-86
2023/01/03 07:19:48;937564.00;3.13;1622.19;54853.00;0.18;95.58;;;;;11.50;1.00;;;;;;2260210;61;1919;-86
2023/01/03 07:22:17;968165.00;3.23;1676.17;64158.00;0.21;111.66;;;;;11.40;1.00;;;;;;2260159;61;1638;-86
2023/01/03 07:24:45;892059.00;2.97;1542.18;110545.00;0.37;191.77;;;;;11.30;1.00;;;;;;2260286;61;1117;-85
2023/01/03 07:27:13;827473.00;2.76;1429.08;40479.00;0.13;70.72;;;;;11.30;1.00;;;;;;2260265;61;1516;-87
2023/01/03 07:29:40;403267.00;1.34;695.42;25765.00;0.09;45.25;;;;;11.00;1.00;;;;;;2260217;61;1585;-87
2023/01/03 07:32:13;788537.00;2.63;1361.14;101552.00;0.34;176.25;;;;;10.60;1.00;;;;;;2260148;61;1542;-85
2023/01/03 07:34:40;500280.00;1.67;862.31;29154.00;0.10;51.12;;;;;10.40;1.00;;;;;;2260252;61;1752;-86
2023/01/03 07:37:10;354809.00;1.18;612.13;0.00;0.00;0.62;;;;;10.30;1.00;;;;;;2260205;61;1615;-85
2023/01/03 07:39:40;606098.00;2.02;1044.75;34995.00;0.12;61.23;;;;;10.40;1.00;;;;;;2260155;61;1673;-86
2023/01/03 07:44:59;147252.00;0.49;255.07;0.00;0.00;0.62;;;;;10.50;1.00;;;;;;2260325;61;689;-85
2023/01/03 07:47:29;178041.00;0.59;308.12;16189.00;0.05;28.67;;;;;10.80;1.00;;;;;;2260170;61;1313;-84
2023/01/03 07:49:57;107702.00;0.36;186.86;0.00;0.00;0.62;;;;;10.70;1.00;;;;;;2260175;61;2294;-86
2023/01/03 07:52:24;69479.00;0.23;120.86;0.00;0.00;0.62;;;;;10.50;1.00;;;;;;2260242;61;1341;-85
2023/01/03 07:54:57;180785.00;0.60;312.84;0.00;0.00;0.62;;;;;10.60;1.00;;;;;;2260186;61;1567;-85
2023/01/03 07:57:25;77878.00;0.26;135.37;0.00;0.00;0.62;;;;;10.60;1.00;;;;;;2260261;61;939;-85
2023/01/03 07:59:56;135661.00;0.45;235.09;0.00;0.00;0.62;;;;;10.60;1.00;;;;;;2260132;61;1441;-87
2023/01/03 08:02:26;155262.00;0.52;268.88;0.00;0.00;0.62;;;;;10.80;1.00;;;;;;2260170;61;1657;-86
2023/01/03 08:04:55;342537.00;1.14;591.03;0.00;0.00;0.62;;;;;10.70;1.00;;;;;;2260050;61;1442;-85
2023/01/03 08:07:31;247685.00;0.83;427.97;0.00;0.00;0.62;;;;;10.70;1.00;;;;;;2260062;61;1542;-85
2023/01/03 08:15:29;464970.00;1.55;801.54;0.00;0.00;0.62;;;;;10.80;1.00;;;;;;2265772;61;1392;-87
2023/01/03 08:17:59;375658.00;1.25;647.96;0.00;0.00;0.62;;;;;10.80;1.00;;;;;;2264162;61;1592;-86
2023/01/03 08:20:28;202572.00;0.68;350.35;0.00;0.00;0.62;;;;;11.10;1.00;;;;;;2264135;61;2014;-86
2023/01/03 08:22:55;641373.00;2.14;1105.71;95187.00;0.32;165.26;;;;;11.00;1.00;;;;;;2264045;61;1473;-87
2023/01/03 08:25:32;230593.00;0.77;398.57;0.00;0.00;0.62;;;;;11.00;1.00;;;;;;2264002;61;1555;-86
2023/01/03 08:28:03;154449.00;0.51;267.47;0.00;0.00;0.62;;;;;11.00;1.00;;;;;;2264172;61;1463;-86
2023/01/03 08:30:33;264964.00;0.88;457.68;0.00;0.00;0.62;;;;;11.20;1.00;;;;;;2264079;61;1527;-87
2023/01/03 08:33:06;322888.00;1.08;557.26;8685.00;0.03;15.67;;;;;11.20;1.00;;;;;;2264059;61;1681;-87
2023/01/03 08:35:39;146536.00;0.49;253.84;0.00;0.00;0.62;;;;;11.10;1.00;;;;;;2263963;61;1441;-87
2023/01/03 08:38:11;216930.00;0.72;375.06;0.00;0.00;0.62;;;;;11.20;1.00;;;;;;2264054;61;1167;-86
2023/01/03 08:40:42;383701.00;1.28;661.79;0.00;0.00;0.62;;;;;11.40;1.00;;;;;;2264336;61;2001;-86
2023/01/03 08:43:14;345735.00;1.15;596.53;0.00;0.00;0.62;;;;;11.50;1.00;;;;;;2264603;61;1618;-87
2023/01/03 08:45:43;214727.00;0.72;371.27;0.00;0.00;0.62;;;;;11.80;1.00;;;;;;2264725;61;1530;-87
2023/01/03 08:48:15;125917.00;0.42;218.29;0.00;0.00;0.62;;;;;11.80;1.00;;;;;;2264833;61;1500;-88
2023/01/03 09:03:17;1530371.00;5.10;2700.40;110746.00;0.37;192.12;;;;;11.70;1.00;;;;;;2313660;40;3538;-90
2023/01/03 09:13:38;949524.00;3.17;1643.27;65686.00;0.22;114.31;;;;;12.20;1.00;;;;;;1071572;40;3195;-87
2023/01/03 09:36:05;359209.00;1.20;619.69;0.00;0.00;0.62;;;;;13.00;1.00;;;;;;2269592;55;3664;-88
2023/01/03 09:41:09;650870.00;2.17;1122.14;0.00;0.00;0.62;;;;;12.90;1.00;;;;;;2263252;61;1957;-86
2023/01/03 09:46:17;235809.00;0.79;407.54;0.00;0.00;0.62;;;;;12.90;1.00;;;;;;1644890;55;3664;-89
2023/01/03 10:04:34;648870.00;2.16;1118.68;93914.00;0.31;163.07;;;;;13.30;1.00;;;;;;2266440;61;1425;-86
2023/01/03 10:17:21;621832.00;2.07;1071.93;0.00;0.00;0.62;;;;;13.50;1.00;;;;;;1986345;55;3589;-88
2023/01/03 10:20:17;32292.00;0.11;56.55;0.00;0.00;0.62;;;;;13.70;1.00;;;;;;2273250;55;3787;-89
2023/01/03 10:50:29;579886.00;1.93;999.50;0.00;0.00;0.62;;;;;13.80;1.00;;;;;;1937279;56;3776;-88
2023/01/03 10:52:58;528896.00;1.76;911.59;96372.00;0.32;167.31;;;;;13.70;1.00;;;;;;2382640;56;3847;-84
2023/01/03 11:05:30;515933.00;1.72;889.26;0.00;0.00;0.62;;;;;13.20;1.00;;;;;;2270357;55;3560;-89
2023/01/03 11:08:00;78503.00;0.26;136.45;0.00;0.00;0.62;;;;;13.30;1.00;;;;;;2307781;55;3772;-89
2023/01/03 11:13:01;380710.00;1.27;656.65;0.00;0.00;0.62;;;;;13.40;1.00;;;;;;2262483;61;1346;-90
2023/01/03 11:15:39;152982.00;0.51;264.95;0.00;0.00;0.62;;;;;13.20;1.00;;;;;;2260267;61;1600;-87
2023/01/03 11:20:47;407951.00;1.36;703.47;0.00;0.00;0.62;;;;;13.50;1.00;;;;;;2262971;61;1952;-90
2023/01/03 11:23:16;245721.00;0.82;424.59;0.00;0.00;0.62;;;;;13.70;1.00;;;;;;2333551;40;3815;-87
2023/01/03 11:41:09;646848.00;2.16;1115.18;105985.00;0.35;183.90;;;;;13.80;1.00;;;;;;2270943;55;3680;-88
2023/01/03 11:49:02;638028.00;2.13;1099.93;43564.00;0.15;76.05;;;;;13.80;1.00;;;;;;2268263;40;3553;-90
2023/01/03 11:51:43;219021.00;0.73;378.66;0.00;0.00;0.62;;;;;14.00;1.00;;;;;;2267111;61;1637;-89
2023/01/03 11:54:46;144075.00;0.48;249.60;0.00;0.00;0.62;;;;;14.20;1.00;;;;;;2264089;61;1603;-90
2023/01/03 12:00:05;477573.00;1.59;823.22;0.00;0.00;0.62;;;;;14.20;1.00;;;;;;2275314;40;3487;-87
2023/01/03 12:05:23;698740.00;2.33;1205.05;11511.00;0.04;20.57;;;;;14.00;1.00;;;;;;2261990;61;1406;-88
2023/01/03 12:08:00;636513.00;2.12;1097.31;0.00;0.00;0.62;;;;;14.10;1.00;;;;;;2260000;61;1542;-87
2023/01/03 12:10:45;949873.00;3.17;1643.89;88004.00;0.29;152.86;;;;;14.20;1.00;;;;;;2265864;55;3758;-88
2023/01/03 12:13:25;671153.00;2.24;1157.25;70474.00;0.23;122.58;;;;;13.90;1.00;;;;;;2264347;61;1605;-89
2023/01/03 12:16:07;702670.00;2.34;1211.87;47053.00;0.16;82.09;;;;;13.90;1.00;;;;;;2263707;61;1678;-87
2023/01/03 12:21:14;957151.00;3.19;1656.73;70638.00;0.24;122.86;;;;;13.90;1.00;;;;;;2267417;40;3524;-86
2023/01/03 12:23:48;612519.00;2.04;1055.84;74794.00;0.25;130.04;;;;;14.30;1.00;;;;;;2264022;61;1697;-88
2023/01/03 12:26:17;1004173.00;3.35;1739.86;113574.00;0.38;197.00;;;;;14.30;1.00;;;;;;2264016;61;1336;-90
2023/01/03 12:28:52;1295960.00;4.32;2264.71;122773.00;0.41;212.87;;;;;14.30;1.00;;;;;;2263801;61;1417;-88
2023/01/03 12:34:02;1668895.00;5.56;2965.15;106396.00;0.35;184.61;;;;;14.60;1.00;;;;;;2266225;61;1415;-86
2023/01/03 12:36:42;1224908.00;4.08;2135.32;138268.00;0.46;239.59;;;;;14.60;1.00;;;;;;2264091;61;1498;-89
2023/01/03 12:39:27;1705018.00;5.68;3035.18;217568.00;0.73;376.16;;;;;14.60;1.00;;;;;;2263965;61;1705;-90
2023/01/03 12:42:00;1417837.00;4.73;2489.45;255922.00;0.85;442.14;;;;;14.50;1.00;;;;;;2263889;61;2009;-85
2023/01/03 12:44:39;1175217.00;3.92;2045.48;276090.00;0.92;476.81;;;;;14.50;1.00;;;;;;2264048;61;1091;-87
2023/01/03 12:52:19;551982.00;1.84;951.38;87464.00;0.29;151.93;;;;;14.40;1.00;;;;;;2261516;61;1406;-88
2023/01/03 12:57:41;400107.00;1.33;689.99;0.00;0.00;0.62;;;;;14.10;1.00;;;;;;2261883;61;1434;-88
2023/01/03 13:00:48;99088.00;0.33;172.00;0.00;0.00;0.62;;;;;14.00;1.00;;;;;;2259976;61;1453;-87
2023/01/03 13:03:23;1669844.00;5.57;2966.98;307258.00;1.02;530.40;;;;;14.20;1.00;;;;;;2272761;40;3644;-87
2023/01/03 13:05:57;1641588.00;5.47;2912.49;188178.00;0.63;325.57;;;;;14.40;1.00;;;;;;2267769;61;1592;-89
2023/01/03 13:11:04;124317000.00;414.39;77837488.00;89641.00;0.30;155.69;;;;;14.70;1.00;;;;;;2261573;61;1398;-89
2023/01/03 13:13:35;406858.00;1.36;701.60;93970.00;0.31;163.16;;;;;14.60;1.00;;;;;;2255826;61;1458;-87
2023/01/03 13:19:55;333724.00;1.11;575.89;49134.00;0.16;85.69;;;;;14.10;1.00;;;;;;2256161;61;1439;-87
2023/01/03 13:22:45;205088.00;0.68;354.68;0.00;0.00;0.62;;;;;14.00;1.00;;;;;;2255846;61;1928;-88
2023/01/03 13:25:38;105899.00;0.35;183.75;0.00;0.00;0.62;;;;;14.30;1.00;;;;;;2256077;61;1201;-87
2023/01/03 13:28:32;24136.00;0.08;42.43;0.00;0.00;0.62;;;;;14.30;1.00;;;;;;2256548;61;1637;-87
2023/01/03 13:31:35;788317.00;2.63;1360.76;140173.00;0.47;242.87;;;;;14.30;1.00;;;;;;2256615;61;1079;-87
2023/01/03 13:34:32;189280.00;0.63;327.47;0.00;0.00;0.62;;;;;14.60;1.00;;;;;;2256600;61;1489;-86
2023/01/03 13:37:21;170730.00;0.57;295.52;0.00;0.00;0.62;;;;;14.50;1.00;;;;;;2256620;61;1639;-88
2023/01/03 13:40:11;246672.00;0.82;426.23;7433.00;0.02;13.50;;;;;14.40;1.00;;;;;;2256626;61;988;-87
2023/01/03 13:42:40;519226.00;1.73;894.93;0.00;0.00;0.62;;;;;14.20;1.00;;;;;;2256363;61;2022;-86